Big Brook, Canada
Current Conditions -  °F | °C
As of 10:00 PM on Sunday 21 Dec 2014 (Local Time) from CYAY Reporting Station
Clear Clear  
Wind Chill:   Ceiling: Unl
Heat Index: 14°   Visibility: 9mi
Dew Point: 12°   Wind: 5mph
Humidity: 93%   Direction: 300°WNW
Pressure: 30.32"   Gusts: NA
Location:  51.51°N, 56.14°W
Report Text: CYAY 220100Z AUTO 30004KT 9SM CLR M10/M11 A3032 RMK SLP271
Loading
Personal Weather Stations






























Interactive Weather Map New forecast layout! Learn more

10-Day Weather Forecast

Advertisements
Track Severe Weather on mobile